createdAt,value
2022-07-29T00:02:21.336Z,73.90
2022-07-29T00:05:24.240Z,74.50
2022-07-29T00:08:27.106Z,74.10
2022-07-29T00:11:31.362Z,74.00
2022-07-29T00:14:34.235Z,73.90
2022-07-29T00:17:37.085Z,73.70
2022-07-29T00:20:39.948Z,74.40
2022-07-29T00:23:42.917Z,76.00
2022-07-29T00:26:47.116Z,77.40
2022-07-29T00:29:50.104Z,77.50
2022-07-29T00:32:53.023Z,77.60
2022-07-29T00:35:54.911Z,77.80
2022-07-29T00:38:58.667Z,77.60
2022-07-29T00:42:04.748Z,77.40
2022-07-29T00:45:08.002Z,78.00
2022-07-29T00:48:11.517Z,77.40
2022-07-29T00:51:15.090Z,77.20
2022-07-29T00:54:18.398Z,77.60
2022-07-29T00:57:22.997Z,76.40
2022-07-29T01:00:29.004Z,75.60
2022-07-29T01:03:31.906Z,76.00
2022-07-29T01:06:35.602Z,77.50
2022-07-29T01:09:45.315Z,76.80
2022-07-29T01:12:53.469Z,76.40
2022-07-29T01:16:01.138Z,76.80
2022-07-29T01:19:25.082Z,76.40
2022-07-29T01:22:37.315Z,75.30
2022-07-29T01:25:56.286Z,75.10
2022-07-29T01:29:12.145Z,76.70
2022-07-29T01:32:28.400Z,75.10
2022-07-29T01:35:37.541Z,76.40
2022-07-29T01:38:43.376Z,73.70
2022-07-29T01:41:52.673Z,75.90
2022-07-29T01:45:02.482Z,73.00
2022-07-29T01:48:12.371Z,73.80
2022-07-29T01:51:20.041Z,75.60
2022-07-29T01:54:30.895Z,75.70
2022-07-29T01:57:37.931Z,75.80
2022-07-29T02:00:44.012Z,76.20
2022-07-29T02:03:48.162Z,77.70
2022-07-29T02:06:54.731Z,77.50
2022-07-29T02:10:00.135Z,77.50
2022-07-29T02:13:05.609Z,78.70
2022-07-29T02:16:11.568Z,78.60
2022-07-29T02:19:16.249Z,78.70
2022-07-29T02:22:20.569Z,79.30
2022-07-29T02:25:25.171Z,78.80
2022-07-29T02:28:42.127Z,79.40
2022-07-29T02:31:48.216Z,78.90
2022-07-29T02:34:51.837Z,76.20
2022-07-29T02:38:09.810Z,76.70
2022-07-29T02:41:15.501Z,77.80
2022-07-29T02:44:27.330Z,76.80
2022-07-29T02:47:41.307Z,76.50
2022-07-29T02:50:51.402Z,77.60
2022-07-29T02:53:56.325Z,76.50
2022-07-29T02:57:02.765Z,77.10
2022-07-29T03:00:09.883Z,77.20
2022-07-29T03:03:17.186Z,77.20
2022-07-29T03:06:30.968Z,77.20
2022-07-29T03:09:43.768Z,77.80
2022-07-29T03:12:47.148Z,78.30
2022-07-29T03:15:50.968Z,78.60
2022-07-29T03:18:56.262Z,79.10
2022-07-29T03:22:00.171Z,79.00
2022-07-29T03:25:10.338Z,79.60
2022-07-29T03:28:13.281Z,79.50
2022-07-29T03:31:16.221Z,80.00
2022-07-29T03:34:20.710Z,79.80
2022-07-29T03:37:26.448Z,80.30
2022-07-29T03:40:35.686Z,80.10
2022-07-29T03:43:49.211Z,80.90
2022-07-29T03:46:55.151Z,81.30
2022-07-29T03:50:07.172Z,81.40
2022-07-29T03:53:14.030Z,81.70
2022-07-29T03:56:18.969Z,82.10
2022-07-29T03:59:23.121Z,82.30
2022-07-29T04:02:30.743Z,82.60
2022-07-29T04:05:35.344Z,82.80
2022-07-29T04:08:38.283Z,82.90
2022-07-29T04:11:57.016Z,83.10
2022-07-29T04:15:06.657Z,82.60
2022-07-29T04:18:09.578Z,83.30
2022-07-29T04:21:13.822Z,84.20
2022-07-29T04:24:17.749Z,84.50
2022-07-29T04:27:21.092Z,84.40
2022-07-29T04:30:24.106Z,84.90
2022-07-29T04:33:27.093Z,85.40
2022-07-29T04:36:31.314Z,84.80
2022-07-29T04:39:34.209Z,85.50
2022-07-29T04:42:41.992Z,85.20
2022-07-29T04:45:49.558Z,85.00
2022-07-29T04:48:52.522Z,85.60
2022-07-29T04:51:56.829Z,86.20
2022-07-29T04:54:59.797Z,86.20
2022-07-29T04:58:02.671Z,86.00
2022-07-29T05:01:06.048Z,86.10
2022-07-29T05:04:08.991Z,86.00
2022-07-29T05:07:13.496Z,86.20
2022-07-29T05:10:16.472Z,86.10
2022-07-29T05:13:19.363Z,85.70
2022-07-29T05:16:22.358Z,85.90
2022-07-29T05:19:25.357Z,86.80
2022-07-29T05:22:29.669Z,85.60
2022-07-29T05:25:44.396Z,85.70
2022-07-29T05:28:47.822Z,85.80
2022-07-29T05:31:51.991Z,85.30
2022-07-29T05:34:54.867Z,85.40
2022-07-29T05:37:59.199Z,85.50
2022-07-29T05:41:02.248Z,85.70
2022-07-29T05:44:05.167Z,86.00
2022-07-29T05:47:08.464Z,85.70
2022-07-29T05:50:11.626Z,85.20
2022-07-29T05:53:19.179Z,84.80
2022-07-29T05:56:24.399Z,85.50
2022-07-29T05:59:30.488Z,85.50
2022-07-29T06:02:33.823Z,84.20
2022-07-29T06:05:36.747Z,84.60
2022-07-29T06:08:41.213Z,84.80
2022-07-29T06:11:44.123Z,84.70
2022-07-29T06:14:50.885Z,84.20
2022-07-29T06:18:00.481Z,83.40
2022-07-29T06:21:10.647Z,83.80
2022-07-29T06:24:15.762Z,82.90
2022-07-29T06:27:18.916Z,82.50
2022-07-29T06:30:22.030Z,82.50
2022-07-29T06:33:24.993Z,82.10
2022-07-29T06:36:27.905Z,82.30
2022-07-29T06:39:32.347Z,82.20
2022-07-29T06:42:35.264Z,80.60
2022-07-29T06:45:39.552Z,81.20
2022-07-29T06:48:43.949Z,80.80
2022-07-29T06:51:47.513Z,80.10
2022-07-29T06:54:51.798Z,80.10
2022-07-29T06:57:54.676Z,79.30
2022-07-29T07:00:58.243Z,79.00
2022-07-29T07:04:01.336Z,79.10
2022-07-29T07:07:04.332Z,77.90
2022-07-29T07:10:10.095Z,77.60
2022-07-29T07:13:13.450Z,78.20
2022-07-29T07:16:16.935Z,76.00
2022-07-29T07:19:20.233Z,75.40
2022-07-29T07:22:23.102Z,75.70
2022-07-29T07:25:27.750Z,76.70
2022-07-29T07:28:30.799Z,76.90
2022-07-29T07:31:33.878Z,77.90
2022-07-29T07:34:38.857Z,75.90
2022-07-29T07:37:42.449Z,74.20
2022-07-29T07:40:47.383Z,72.20
2022-07-29T07:43:50.401Z,73.70
2022-07-29T07:46:54.723Z,72.00
2022-07-29T07:49:57.755Z,71.20
2022-07-29T07:53:02.964Z,70.90
2022-07-29T07:56:12.557Z,69.00
2022-07-29T07:59:15.803Z,69.60
2022-07-29T08:02:18.794Z,69.40
2022-07-29T08:05:22.144Z,70.30
2022-07-29T08:08:25.035Z,69.00
2022-07-29T08:11:29.543Z,70.30
2022-07-29T08:14:37.048Z,68.50
2022-07-29T08:17:39.933Z,70.10
2022-07-29T08:20:43.113Z,69.90
2022-07-29T08:23:58.615Z,70.60
2022-07-29T08:27:09.829Z,70.40
2022-07-29T08:30:24.446Z,70.20
2022-07-29T08:33:27.325Z,70.50
2022-07-29T08:36:30.322Z,71.40
2022-07-29T08:39:33.235Z,71.20
2022-07-29T08:42:38.022Z,68.70
2022-07-29T08:45:47.272Z,69.60
2022-07-29T08:48:51.589Z,68.30
2022-07-29T08:51:55.886Z,68.00
2022-07-29T08:54:59.021Z,68.40
2022-07-29T08:58:03.909Z,69.40
2022-07-29T09:01:12.344Z,68.70
2022-07-29T09:04:16.458Z,67.50
2022-07-29T09:07:20.646Z,67.20
2022-07-29T09:10:23.792Z,65.90
2022-07-29T09:13:28.169Z,66.30
2022-07-29T09:16:54.264Z,68.80
2022-07-29T09:20:11.541Z,68.30
2022-07-29T09:23:24.098Z,68.80
2022-07-29T09:26:30.553Z,67.50
2022-07-29T09:29:36.386Z,67.20
2022-07-29T09:32:57.503Z,65.00
2022-07-29T09:36:07.289Z,65.00
2022-07-29T09:39:10.282Z,64.90
2022-07-29T09:42:13.833Z,65.40
2022-07-29T09:45:31.234Z,64.10
2022-07-29T09:48:34.167Z,65.60
2022-07-29T09:51:38.738Z,66.20
2022-07-29T09:54:42.167Z,64.20
2022-07-29T09:57:45.833Z,64.80
2022-07-29T10:00:52.073Z,64.80
2022-07-29T10:03:55.430Z,66.10
2022-07-29T10:07:04.214Z,66.70
2022-07-29T10:10:10.147Z,65.30
2022-07-29T10:13:16.216Z,66.10
2022-07-29T10:16:20.857Z,65.30
2022-07-29T10:19:24.167Z,65.20
2022-07-29T10:22:51.916Z,65.60
2022-07-29T10:25:50.190Z,65.40
2022-07-29T10:28:53.136Z,66.80
2022-07-29T10:32:22.086Z,65.00
2022-07-29T10:35:40.297Z,64.20
2022-07-29T10:38:54.111Z,64.10
2022-07-29T10:42:19.864Z,65.70
2022-07-29T10:45:24.839Z,64.10
2022-07-29T10:48:29.227Z,64.20
2022-07-29T10:51:54.310Z,62.50
2022-07-29T10:54:59.527Z,62.10
2022-07-29T10:58:14.140Z,61.60
2022-07-29T11:01:37.420Z,62.20
2022-07-29T11:05:06.439Z,59.90
2022-07-29T11:08:26.426Z,60.90
2022-07-29T11:11:34.917Z,62.60
2022-07-29T11:15:01.139Z,62.10
2022-07-29T11:18:15.262Z,62.10
2022-07-29T11:21:54.132Z,60.70
2022-07-29T11:25:16.724Z,59.10
2022-07-29T11:28:25.324Z,56.90
2022-07-29T11:31:39.801Z,55.50
2022-07-29T11:34:43.101Z,56.50
2022-07-29T11:37:52.801Z,57.10
2022-07-29T11:41:22.475Z,56.80
2022-07-29T11:45:41.849Z,53.10
2022-07-29T11:48:32.104Z,55.50
2022-07-29T11:51:36.071Z,53.80
2022-07-29T11:58:06.997Z,54.20
2022-07-29T12:01:14.774Z,53.40
2022-07-29T12:04:17.671Z,54.20
2022-07-29T12:07:35.375Z,52.90
2022-07-29T12:10:40.339Z,54.70
2022-07-29T12:13:43.231Z,55.10
2022-07-29T12:16:46.306Z,55.30
2022-07-29T12:19:49.240Z,55.90
2022-07-29T12:22:55.478Z,55.10
2022-07-29T12:26:00.510Z,54.80
2022-07-29T12:29:03.988Z,53.70
2022-07-29T12:32:19.497Z,53.00
2022-07-29T12:35:23.287Z,53.50
2022-07-29T12:38:26.723Z,54.20
2022-07-29T12:41:31.823Z,54.20
2022-07-29T12:44:48.510Z,53.90
2022-07-29T12:47:54.561Z,53.20
2022-07-29T12:50:59.552Z,54.20
2022-07-29T12:54:08.261Z,53.50
2022-07-29T12:57:20.289Z,52.40
2022-07-29T13:00:25.818Z,54.10
2022-07-29T13:03:28.896Z,53.60
2022-07-29T13:06:41.260Z,54.20
2022-07-29T13:09:46.385Z,54.50
2022-07-29T13:13:08.899Z,54.90
2022-07-29T13:16:11.947Z,53.90
2022-07-29T13:19:14.889Z,55.50
2022-07-29T13:22:20.288Z,54.80
2022-07-29T13:25:27.330Z,57.10
2022-07-29T13:28:31.557Z,56.10
2022-07-29T13:31:34.472Z,56.70
2022-07-29T13:34:37.358Z,58.40
2022-07-29T13:37:40.248Z,58.00
2022-07-29T13:40:43.269Z,58.10
2022-07-29T13:43:47.497Z,58.30
2022-07-29T13:46:53.141Z,57.50
2022-07-29T13:49:56.193Z,57.00
2022-07-29T13:52:59.086Z,55.30
2022-07-29T13:56:02.058Z,56.30
2022-07-29T13:59:06.304Z,56.90
2022-07-29T14:02:10.169Z,57.60
2022-07-29T14:05:13.202Z,58.40
2022-07-29T14:08:16.223Z,57.50
2022-07-29T14:11:19.195Z,57.60
2022-07-29T14:14:23.473Z,55.40
2022-07-29T14:17:26.420Z,58.60
2022-07-29T14:20:30.666Z,58.40
2022-07-29T14:23:33.548Z,55.50
2022-07-29T14:26:36.563Z,56.50
2022-07-29T14:29:40.810Z,56.30
2022-07-29T14:32:43.824Z,57.60
2022-07-29T14:35:47.029Z,57.70
2022-07-29T14:38:50.691Z,58.50
2022-07-29T14:41:54.045Z,58.00
2022-07-29T14:44:58.556Z,57.40
2022-07-29T14:48:01.844Z,58.50
2022-07-29T14:51:05.224Z,58.60
2022-07-29T14:54:08.216Z,59.00
2022-07-29T14:57:11.112Z,60.00
2022-07-29T15:00:16.207Z,60.80
2022-07-29T15:03:24.224Z,60.00
2022-07-29T15:06:27.588Z,59.30
2022-07-29T15:09:30.549Z,59.50
2022-07-29T15:12:34.015Z,59.90
2022-07-29T15:15:38.264Z,60.40
2022-07-29T15:18:41.239Z,61.10
2022-07-29T15:21:48.696Z,61.60
2022-07-29T15:24:51.950Z,62.90
2022-07-29T15:28:00.556Z,62.30
2022-07-29T15:31:06.035Z,63.30
2022-07-29T15:34:09.021Z,64.50
2022-07-29T15:37:12.439Z,64.80
2022-07-29T15:40:15.457Z,64.70
2022-07-29T15:43:18.361Z,65.40
2022-07-29T15:46:40.433Z,65.50
2022-07-29T15:49:47.266Z,64.60
2022-07-29T15:52:52.209Z,64.60
2022-07-29T15:55:55.102Z,64.30
2022-07-29T15:58:58.610Z,65.00
2022-07-29T16:02:03.233Z,64.20
2022-07-29T16:05:09.471Z,63.90
2022-07-29T16:08:12.636Z,64.10
2022-07-29T16:11:15.515Z,65.20
2022-07-29T16:14:18.641Z,64.60
2022-07-29T16:17:22.888Z,64.90
2022-07-29T16:20:25.913Z,64.70
2022-07-29T16:23:29.482Z,65.10
2022-07-29T16:26:32.605Z,65.30
2022-07-29T16:29:37.002Z,65.80
2022-07-29T16:32:41.393Z,65.70
2022-07-29T16:35:44.610Z,66.10
2022-07-29T16:38:47.938Z,66.50
2022-07-29T16:41:50.893Z,66.30
2022-07-29T16:44:53.847Z,66.40
2022-07-29T16:48:01.037Z,67.70
2022-07-29T16:51:05.276Z,68.50
2022-07-29T16:54:10.713Z,69.00
2022-07-29T16:57:13.683Z,70.60
2022-07-29T17:00:18.646Z,63.70
2022-07-29T17:03:23.137Z,61.90
2022-07-29T17:06:26.117Z,64.00
2022-07-29T17:09:29.176Z,65.70
2022-07-29T17:12:32.349Z,66.20
2022-07-29T17:15:36.420Z,66.40
2022-07-29T17:18:41.059Z,67.60
2022-07-29T17:21:46.747Z,69.00
2022-07-29T17:24:52.223Z,70.60
2022-07-29T17:28:00.513Z,73.20
2022-07-29T17:31:03.936Z,73.40
2022-07-29T17:34:09.278Z,69.30
2022-07-29T17:37:13.104Z,67.40
2022-07-29T17:40:15.995Z,66.50
2022-07-29T17:43:18.875Z,72.30
2022-07-29T17:46:24.955Z,76.90
2022-07-29T17:49:29.364Z,78.00
2022-07-29T17:52:32.419Z,76.80
2022-07-29T17:55:35.365Z,76.30
2022-07-29T17:58:39.377Z,78.30
2022-07-29T18:01:42.605Z,78.40
2022-07-29T18:04:46.901Z,78.00
2022-07-29T18:07:55.689Z,81.80
2022-07-29T18:10:58.633Z,80.80
2022-07-29T18:14:02.586Z,82.40
2022-07-29T18:17:05.532Z,81.90
2022-07-29T18:20:11.194Z,80.80
2022-07-29T18:23:14.573Z,81.50
2022-07-29T18:26:17.756Z,83.20
2022-07-29T18:29:20.647Z,84.70
2022-07-29T18:32:28.763Z,84.30
2022-07-29T18:35:33.949Z,86.10
2022-07-29T18:38:36.828Z,85.50
2022-07-29T18:41:46.093Z,86.20
2022-07-29T18:44:53.420Z,86.30
2022-07-29T18:47:57.864Z,87.20
2022-07-29T18:51:02.138Z,86.00
2022-07-29T18:54:12.433Z,85.00
2022-07-29T18:57:53.680Z,86.20
2022-07-29T19:00:38.709Z,85.60
2022-07-29T19:03:41.650Z,87.50
2022-07-29T19:06:45.960Z,87.70
2022-07-29T19:09:49.564Z,88.00
2022-07-29T19:12:52.780Z,87.80
2022-07-29T19:15:55.741Z,88.00
2022-07-29T19:19:00.843Z,89.20
2022-07-29T19:22:05.105Z,88.60
2022-07-29T19:25:09.261Z,90.30
2022-07-29T19:28:12.188Z,90.80
2022-07-29T19:31:15.149Z,91.20
2022-07-29T19:34:18.155Z,90.60
2022-07-29T19:37:22.458Z,90.90
2022-07-29T19:40:25.984Z,90.50
2022-07-29T19:43:50.887Z,91.20
2022-07-29T19:46:51.862Z,91.30
2022-07-29T19:49:54.778Z,92.00
2022-07-29T19:52:59.657Z,92.60
2022-07-29T19:56:02.601Z,93.10
2022-07-29T19:59:07.329Z,92.90
2022-07-29T20:02:11.071Z,92.60
2022-07-29T20:05:14.711Z,92.70
2022-07-29T20:08:19.242Z,92.80
2022-07-29T20:11:22.399Z,93.40
2022-07-29T20:14:25.375Z,93.40
2022-07-29T20:17:28.922Z,93.20
2022-07-29T20:20:31.921Z,93.10
2022-07-29T20:23:37.368Z,93.00
2022-07-29T20:26:40.319Z,93.40
2022-07-29T20:29:43.306Z,93.30
2022-07-29T20:32:46.907Z,93.00
2022-07-29T20:35:49.820Z,93.40
2022-07-29T20:38:54.064Z,93.70
2022-07-29T20:41:57.209Z,94.00
2022-07-29T20:45:00.154Z,94.00
2022-07-29T20:48:03.056Z,94.30
2022-07-29T20:51:06.036Z,94.70
2022-07-29T20:54:10.311Z,94.80
2022-07-29T20:57:13.305Z,94.40
2022-07-29T21:00:16.543Z,94.20
2022-07-29T21:03:19.515Z,94.30
2022-07-29T21:06:22.595Z,95.10
2022-07-29T21:09:26.853Z,95.20
2022-07-29T21:12:30.145Z,94.70
2022-07-29T21:15:33.413Z,94.90
2022-07-29T21:18:37.523Z,94.90
2022-07-29T21:21:40.445Z,94.90
2022-07-29T21:24:44.724Z,95.40
2022-07-29T21:28:05.269Z,95.00
2022-07-29T21:31:10.441Z,94.80
2022-07-29T21:34:14.530Z,95.80
2022-07-29T21:37:17.476Z,95.10
2022-07-29T21:40:21.894Z,94.90
2022-07-29T21:43:26.551Z,94.70
2022-07-29T21:46:29.611Z,94.60
2022-07-29T21:49:32.521Z,94.60
2022-07-29T21:52:35.705Z,95.00
2022-07-29T21:55:42.010Z,95.50
2022-07-29T21:58:44.899Z,95.10
2022-07-29T22:01:47.974Z,95.20
2022-07-29T22:04:51.596Z,95.10
2022-07-29T22:07:56.426Z,94.80
2022-07-29T22:11:01.191Z,95.40
2022-07-29T22:14:04.371Z,95.60
2022-07-29T22:17:07.305Z,95.20
2022-07-29T22:20:11.216Z,95.60
2022-07-29T22:23:14.116Z,95.60
2022-07-29T22:26:18.386Z,95.80
2022-07-29T22:29:21.701Z,95.80
2022-07-29T22:32:24.597Z,96.00
2022-07-29T22:35:27.685Z,95.70
2022-07-29T22:38:30.571Z,95.90
2022-07-29T22:41:34.811Z,96.10
2022-07-29T22:44:37.758Z,95.80
2022-07-29T22:47:48.450Z,95.60
2022-07-29T22:50:51.699Z,96.10
2022-07-29T22:53:54.667Z,96.30
2022-07-29T22:56:59.057Z,95.40
2022-07-29T23:00:02.665Z,95.80
2022-07-29T23:03:05.633Z,96.20
2022-07-29T23:06:08.586Z,96.30
2022-07-29T23:09:11.498Z,96.20
2022-07-29T23:12:15.779Z,95.90
2022-07-29T23:15:18.694Z,96.20
2022-07-29T23:18:22.497Z,95.60
2022-07-29T23:21:26.236Z,95.70
2022-07-29T23:24:29.104Z,95.90
2022-07-29T23:27:33.385Z,95.80
2022-07-29T23:30:37.035Z,96.40
2022-07-29T23:33:39.992Z,95.50
2022-07-29T23:36:43.177Z,95.70
2022-07-29T23:39:46.126Z,95.60
2022-07-29T23:42:50.477Z,95.90
2022-07-29T23:45:53.681Z,95.60
2022-07-29T23:48:56.743Z,95.40
2022-07-29T23:51:59.668Z,95.90
2022-07-29T23:55:38.293Z,96.00
2022-07-29T23:58:26.878Z,96.00
